createdAt,value
2019-01-12T00:00:54.659Z,58.14
2019-01-12T00:03:21.734Z,58.12
2019-01-12T00:05:48.914Z,58.10
2019-01-12T00:08:16.004Z,58.22
2019-01-12T00:10:43.162Z,58.18
2019-01-12T00:13:10.272Z,58.21
2019-01-12T00:15:38.218Z,58.28
2019-01-12T00:18:05.341Z,58.29
2019-01-12T00:20:33.045Z,58.27
2019-01-12T00:23:00.148Z,58.31
2019-01-12T00:25:27.254Z,58.33
2019-01-12T00:27:54.393Z,58.43
2019-01-12T00:30:21.489Z,58.60
2019-01-12T00:32:48.587Z,58.65
2019-01-12T00:35:15.676Z,58.65
2019-01-12T00:37:43.132Z,58.65
2019-01-12T00:40:10.220Z,58.74
2019-01-12T00:42:37.326Z,58.70
2019-01-12T00:45:05.471Z,58.91
2019-01-12T00:47:32.764Z,58.99
2019-01-12T00:50:00.030Z,58.99
2019-01-12T00:52:27.236Z,59.16
2019-01-12T00:54:54.465Z,59.25
2019-01-12T00:57:21.570Z,59.30
2019-01-12T00:59:48.677Z,59.15
2019-01-12T01:02:15.789Z,59.19
2019-01-12T01:04:42.878Z,59.24
2019-01-12T01:07:10.058Z,59.14
2019-01-12T01:09:37.309Z,59.22
2019-01-12T01:12:04.466Z,59.34
2019-01-12T01:14:31.531Z,59.36
2019-01-12T01:16:58.630Z,59.30
2019-01-12T01:19:25.749Z,59.38
2019-01-12T01:21:53.005Z,59.43
2019-01-12T01:24:20.094Z,59.45
2019-01-12T01:26:47.359Z,59.47
2019-01-12T01:29:14.523Z,59.48
2019-01-12T01:31:41.699Z,59.53
2019-01-12T01:34:08.873Z,59.42
2019-01-12T01:36:36.029Z,59.42
2019-01-12T01:39:06.482Z,59.49
2019-01-12T01:41:33.593Z,59.57
2019-01-12T01:44:00.820Z,59.58
2019-01-12T01:46:27.920Z,59.70
2019-01-12T01:48:55.012Z,59.78
2019-01-12T01:51:22.151Z,59.85
2019-01-12T01:53:49.247Z,59.90
2019-01-12T01:56:16.338Z,59.80
2019-01-12T01:58:43.445Z,59.78
2019-01-12T02:01:10.532Z,59.81
2019-01-12T02:03:37.626Z,59.79
2019-01-12T02:06:08.675Z,59.83
2019-01-12T02:08:35.796Z,59.88
2019-01-12T02:11:07.795Z,60.01
2019-01-12T02:13:34.919Z,60.12
2019-01-12T02:16:02.054Z,60.24
2019-01-12T02:18:29.146Z,60.26
2019-01-12T02:20:58.813Z,60.32
2019-01-12T02:23:25.919Z,60.40
2019-01-12T02:25:53.112Z,60.43
2019-01-12T02:28:20.260Z,60.46
2019-01-12T02:30:47.515Z,60.60
2019-01-12T02:33:15.853Z,60.73
2019-01-12T02:35:42.957Z,60.80
2019-01-12T02:38:12.024Z,60.87
2019-01-12T02:40:39.120Z,60.95
2019-01-12T02:43:06.213Z,61.01
2019-01-12T02:45:33.320Z,61.12
2019-01-12T02:48:00.404Z,61.17
2019-01-12T02:50:27.487Z,61.19
2019-01-12T02:52:54.612Z,61.22
2019-01-12T02:55:21.712Z,61.27
2019-01-12T02:57:48.807Z,61.29
2019-01-12T03:00:17.307Z,61.35
2019-01-12T03:02:44.412Z,61.35
2019-01-12T03:05:11.515Z,61.36
2019-01-12T03:07:38.657Z,61.30
2019-01-12T03:10:06.864Z,61.33
2019-01-12T03:12:33.983Z,61.34
2019-01-12T03:15:01.086Z,61.35
2019-01-12T03:17:28.185Z,61.38
2019-01-12T03:19:55.281Z,61.42
2019-01-12T03:22:22.369Z,61.50
2019-01-12T03:24:49.468Z,61.50
2019-01-12T03:27:18.351Z,61.47
2019-01-12T03:29:45.444Z,61.47
2019-01-12T03:32:12.532Z,61.58
2019-01-12T03:34:39.619Z,61.70
2019-01-12T03:37:06.710Z,61.81
2019-01-12T03:39:33.806Z,61.96
2019-01-12T03:42:00.912Z,62.05
2019-01-12T03:44:28.009Z,62.10
2019-01-12T03:46:55.094Z,62.20
2019-01-12T03:49:22.184Z,62.27
2019-01-12T03:51:49.286Z,62.30
2019-01-12T03:54:16.413Z,62.33
2019-01-12T03:56:43.496Z,62.41
2019-01-12T03:59:10.596Z,62.47
2019-01-12T04:01:37.694Z,62.59
2019-01-12T04:04:04.795Z,62.65
2019-01-12T04:06:31.919Z,62.74
2019-01-12T04:08:59.012Z,62.86
2019-01-12T04:11:26.138Z,62.94
2019-01-12T04:13:53.222Z,63.03
2019-01-12T04:16:20.315Z,63.10
2019-01-12T04:18:47.420Z,63.15
2019-01-12T04:21:14.512Z,63.15
2019-01-12T04:23:41.613Z,63.18
2019-01-12T04:26:08.701Z,63.22
2019-01-12T04:28:35.789Z,63.27
2019-01-12T04:31:02.936Z,63.27
2019-01-12T04:33:30.025Z,63.29
2019-01-12T04:35:57.124Z,63.30
2019-01-12T04:38:24.211Z,63.32
2019-01-12T04:40:51.300Z,63.41
2019-01-12T04:43:18.408Z,63.43
2019-01-12T04:45:45.525Z,63.47
2019-01-12T04:48:12.620Z,63.49
2019-01-12T04:50:39.701Z,63.44
2019-01-12T04:53:06.806Z,63.45
2019-01-12T04:55:41.037Z,63.47
2019-01-12T04:58:02.925Z,63.45
2019-01-12T05:00:30.028Z,63.41
2019-01-12T05:02:57.117Z,63.45
2019-01-12T05:05:24.224Z,63.45
2019-01-12T05:07:51.309Z,63.50
2019-01-12T05:10:18.525Z,63.53
2019-01-12T05:12:45.589Z,63.59
2019-01-12T05:15:13.476Z,63.60
2019-01-12T05:17:40.590Z,63.67
2019-01-12T05:20:11.158Z,63.71
2019-01-12T05:22:38.241Z,63.73
2019-01-12T05:25:05.457Z,63.66
2019-01-12T05:27:32.560Z,63.65
2019-01-12T05:29:59.681Z,63.68
2019-01-12T05:32:26.770Z,63.75
2019-01-12T05:34:53.859Z,63.79
2019-01-12T05:37:20.967Z,63.78
2019-01-12T05:39:48.050Z,63.76
2019-01-12T05:42:15.139Z,63.77
2019-01-12T05:44:43.338Z,63.82
2019-01-12T05:47:10.427Z,63.85
2019-01-12T05:49:37.532Z,63.84
2019-01-12T05:52:04.744Z,63.93
2019-01-12T05:54:31.940Z,63.96
2019-01-12T05:57:00.432Z,64.01
2019-01-12T05:59:28.610Z,63.96
2019-01-12T06:01:58.724Z,63.95
2019-01-12T06:04:25.818Z,63.96
2019-01-12T06:06:52.964Z,64.02
2019-01-12T06:09:23.769Z,64.08
2019-01-12T06:11:51.960Z,64.15
2019-01-12T06:14:19.059Z,64.20
2019-01-12T06:16:47.266Z,64.22
2019-01-12T06:19:15.436Z,64.29
2019-01-12T06:21:43.632Z,64.31
2019-01-12T06:24:11.982Z,64.35
2019-01-12T06:26:39.209Z,64.42
2019-01-12T06:29:06.407Z,64.44
2019-01-12T06:31:33.506Z,64.48
2019-01-12T06:34:01.715Z,64.52
2019-01-12T06:36:29.949Z,64.55
2019-01-12T06:38:57.024Z,64.57
2019-01-12T06:41:24.317Z,64.60
2019-01-12T06:43:51.508Z,64.67
2019-01-12T06:46:18.640Z,64.68
2019-01-12T06:48:45.835Z,64.69
2019-01-12T06:51:13.055Z,64.69
2019-01-12T06:53:41.284Z,64.69
2019-01-12T06:56:10.991Z,64.78
2019-01-12T06:58:37.557Z,64.78
2019-01-12T07:01:04.809Z,64.76
2019-01-12T07:03:33.760Z,64.80
2019-01-12T07:06:02.076Z,64.82
2019-01-12T07:08:29.179Z,64.82
2019-01-12T07:10:56.301Z,64.84
2019-01-12T07:13:23.444Z,64.83
2019-01-12T07:15:50.604Z,64.82
2019-01-12T07:18:19.036Z,64.83
2019-01-12T07:20:47.205Z,64.86
2019-01-12T07:23:14.355Z,64.79
2019-01-12T07:25:42.585Z,64.77
2019-01-12T07:28:09.870Z,64.73
2019-01-12T07:30:36.965Z,64.72
2019-01-12T07:33:04.309Z,64.76
2019-01-12T07:35:33.322Z,64.77
2019-01-12T07:38:00.451Z,64.79
2019-01-12T07:40:28.874Z,64.78
2019-01-12T07:42:56.140Z,64.78
2019-01-12T07:45:23.362Z,64.78
2019-01-12T07:47:50.630Z,64.78
2019-01-12T07:50:18.111Z,64.78
2019-01-12T07:52:46.222Z,64.80
2019-01-12T07:55:13.416Z,64.84
2019-01-12T07:57:40.569Z,64.86
2019-01-12T08:00:12.630Z,64.89
2019-01-12T08:02:39.888Z,64.88
2019-01-12T08:05:07.113Z,64.87
2019-01-12T08:07:34.293Z,64.90
2019-01-12T08:10:01.541Z,64.95
2019-01-12T08:12:28.772Z,64.96
2019-01-12T08:14:57.833Z,65.02
2019-01-12T08:17:25.239Z,65.07
2019-01-12T08:19:53.548Z,65.13
2019-01-12T08:22:20.806Z,65.21
2019-01-12T08:24:48.120Z,65.30
2019-01-12T08:27:15.393Z,65.40
2019-01-12T08:29:42.639Z,65.50
2019-01-12T08:32:10.913Z,65.60
2019-01-12T08:34:38.032Z,65.70
2019-01-12T08:37:05.132Z,65.78
2019-01-12T08:39:32.258Z,65.84
2019-01-12T08:41:59.345Z,65.84
2019-01-12T08:44:26.435Z,65.87
2019-01-12T08:46:53.529Z,65.86
2019-01-12T08:49:20.639Z,65.81
2019-01-12T08:51:47.832Z,65.83
2019-01-12T08:54:15.033Z,65.84
2019-01-12T08:56:43.236Z,65.91
2019-01-12T08:59:13.280Z,65.96
2019-01-12T09:01:41.477Z,66.01
2019-01-12T09:04:08.686Z,65.96
2019-01-12T09:06:35.838Z,65.95
2019-01-12T09:09:07.259Z,65.98
2019-01-12T09:11:34.447Z,66.01
2019-01-12T09:14:03.438Z,66.04
2019-01-12T09:16:30.532Z,66.00
2019-01-12T09:18:57.643Z,66.00
2019-01-12T09:21:24.732Z,66.00
2019-01-12T09:23:51.821Z,65.93
2019-01-12T09:26:18.941Z,66.00
2019-01-12T09:28:46.057Z,66.02
2019-01-12T09:31:13.155Z,66.00
2019-01-12T09:33:40.318Z,65.97
2019-01-12T09:36:07.413Z,65.93
2019-01-12T09:38:36.353Z,65.85
2019-01-12T09:41:03.470Z,65.75
2019-01-12T09:43:30.557Z,65.73
2019-01-12T09:45:57.660Z,65.64
2019-01-12T09:48:24.752Z,65.51
2019-01-12T09:50:51.839Z,65.50
2019-01-12T09:53:19.080Z,65.48
2019-01-12T09:55:46.321Z,65.40
2019-01-12T09:58:13.424Z,65.26
2019-01-12T10:00:41.626Z,65.09
2019-01-12T10:03:08.726Z,64.81
2019-01-12T10:05:38.790Z,64.75
2019-01-12T10:08:06.233Z,64.68
2019-01-12T10:10:33.422Z,64.68
2019-01-12T10:13:00.538Z,64.68
2019-01-12T10:15:27.784Z,64.68
2019-01-12T10:17:56.783Z,64.67
2019-01-12T10:20:24.955Z,64.58
2019-01-12T10:22:52.164Z,64.54
2019-01-12T10:25:19.754Z,64.47
2019-01-12T10:27:48.005Z,64.43
2019-01-12T10:30:17.632Z,64.40
2019-01-12T10:32:44.875Z,64.36
2019-01-12T10:35:13.064Z,64.39
2019-01-12T10:37:40.304Z,64.47
2019-01-12T10:40:08.155Z,64.47
2019-01-12T10:42:35.251Z,64.46
2019-01-12T10:45:02.465Z,64.49
2019-01-12T10:47:29.611Z,64.53
2019-01-12T10:49:56.853Z,64.57
2019-01-12T10:52:25.722Z,64.59
2019-01-12T10:54:52.819Z,64.60
2019-01-12T10:57:19.956Z,64.57
2019-01-12T10:59:48.095Z,64.57
2019-01-12T11:02:16.368Z,64.36
2019-01-12T11:04:43.561Z,64.36
2019-01-12T11:07:16.641Z,64.30
2019-01-12T11:09:45.644Z,64.30
2019-01-12T11:12:12.940Z,64.28
2019-01-12T11:14:40.042Z,64.16
2019-01-12T11:17:07.305Z,64.14
2019-01-12T11:19:34.399Z,64.11
2019-01-12T11:22:01.493Z,64.14
2019-01-12T11:24:28.591Z,63.97
2019-01-12T11:26:55.684Z,63.53
2019-01-12T11:29:22.816Z,63.62
2019-01-12T11:31:49.925Z,63.71
2019-01-12T11:34:17.024Z,63.75
2019-01-12T11:36:44.158Z,63.76
2019-01-12T11:39:12.370Z,63.74
2019-01-12T11:41:40.495Z,63.71
2019-01-12T11:44:07.704Z,63.66
2019-01-12T11:46:35.850Z,63.60
2019-01-12T11:49:04.142Z,63.56
2019-01-12T11:51:31.230Z,63.46
2019-01-12T11:53:58.327Z,63.40
2019-01-12T11:56:25.424Z,63.35
2019-01-12T11:58:52.519Z,63.38
2019-01-12T12:01:19.647Z,63.40
2019-01-12T12:03:46.760Z,63.43
2019-01-12T12:06:13.851Z,63.52
2019-01-12T12:08:40.953Z,63.50
2019-01-12T12:11:08.070Z,63.46
2019-01-12T12:13:35.256Z,63.50
2019-01-12T12:16:02.367Z,63.49
2019-01-12T12:18:29.458Z,63.58
2019-01-12T12:20:56.545Z,63.65
2019-01-12T12:23:23.642Z,63.74
2019-01-12T12:25:50.735Z,63.79
2019-01-12T12:28:17.837Z,63.84
2019-01-12T12:30:44.939Z,63.90
2019-01-12T12:33:12.025Z,63.90
2019-01-12T12:35:39.113Z,63.90
2019-01-12T12:38:06.226Z,63.98
2019-01-12T12:40:33.418Z,64.02
2019-01-12T12:43:00.487Z,64.05
2019-01-12T12:45:29.940Z,63.99
2019-01-12T12:47:57.035Z,63.97
2019-01-12T12:50:24.130Z,63.95
2019-01-12T12:52:51.240Z,64.01
2019-01-12T12:55:18.361Z,64.07
2019-01-12T12:57:45.457Z,64.12
2019-01-12T13:00:15.404Z,64.23
2019-01-12T13:02:42.504Z,64.07
2019-01-12T13:05:09.868Z,64.11
2019-01-12T13:07:36.960Z,64.17
2019-01-12T13:10:05.652Z,64.16
2019-01-12T13:12:32.762Z,64.25
2019-01-12T13:14:59.879Z,64.29
2019-01-12T13:17:26.964Z,64.34
2019-01-12T13:19:54.053Z,64.44
2019-01-12T13:22:21.145Z,64.58
2019-01-12T13:24:48.229Z,64.57
2019-01-12T13:27:15.345Z,64.54
2019-01-12T13:29:42.603Z,64.56
2019-01-12T13:32:09.727Z,64.59
2019-01-12T13:34:36.835Z,64.61
2019-01-12T13:37:03.950Z,64.67
2019-01-12T13:39:32.117Z,64.69
2019-01-12T13:42:00.608Z,64.76
2019-01-12T13:44:28.829Z,64.75
2019-01-12T13:46:57.046Z,64.80
2019-01-12T13:49:24.202Z,64.80
2019-01-12T13:51:51.458Z,64.81
2019-01-12T13:54:20.010Z,64.82
2019-01-12T13:56:48.240Z,64.89
2019-01-12T13:59:15.348Z,64.89
2019-01-12T14:01:42.489Z,64.96
2019-01-12T14:04:10.763Z,65.04
2019-01-12T14:06:37.885Z,65.08
2019-01-12T14:09:07.314Z,65.08
2019-01-12T14:11:36.506Z,65.11
2019-01-12T14:14:04.715Z,65.19
2019-01-12T14:16:33.714Z,65.29
2019-01-12T14:19:02.643Z,65.35
2019-01-12T14:21:29.737Z,65.27
2019-01-12T14:23:56.842Z,65.19
2019-01-12T14:26:23.940Z,65.23
2019-01-12T14:28:51.058Z,65.25
2019-01-12T14:31:18.336Z,65.36
2019-01-12T14:33:45.439Z,65.49
2019-01-12T14:36:12.566Z,65.55
2019-01-12T14:38:39.675Z,65.52
2019-01-12T14:41:06.929Z,65.47
2019-01-12T14:43:35.440Z,65.37
2019-01-12T14:46:03.645Z,65.41
2019-01-12T14:48:31.781Z,65.52
2019-01-12T14:51:00.072Z,65.53
2019-01-12T14:53:27.450Z,65.48
2019-01-12T14:55:54.703Z,65.42
2019-01-12T14:58:23.120Z,65.32
2019-01-12T15:00:50.319Z,65.26
2019-01-12T15:03:20.488Z,65.29
2019-01-12T15:05:47.615Z,65.44
2019-01-12T15:08:14.724Z,65.53
2019-01-12T15:10:41.853Z,65.56
2019-01-12T15:13:08.977Z,65.56
2019-01-12T15:15:36.197Z,65.50
2019-01-12T15:18:05.185Z,65.47
2019-01-12T15:20:32.383Z,65.54
2019-01-12T15:22:59.489Z,65.62
2019-01-12T15:25:26.890Z,65.75
2019-01-12T15:27:54.502Z,65.82
2019-01-12T15:30:23.641Z,65.82
2019-01-12T15:32:50.762Z,65.82
2019-01-12T15:35:18.582Z,65.77
2019-01-12T15:37:45.745Z,65.79
2019-01-12T15:40:13.813Z,65.78
2019-01-12T15:42:40.995Z,65.75
2019-01-12T15:45:11.212Z,65.84
2019-01-12T15:47:38.671Z,65.86
2019-01-12T15:50:10.149Z,65.94
2019-01-12T15:52:41.266Z,66.13
2019-01-12T15:55:09.856Z,66.21
2019-01-12T15:57:37.105Z,66.12
2019-01-12T16:00:07.204Z,66.03
2019-01-12T16:02:39.853Z,65.93
2019-01-12T16:05:04.490Z,65.95
2019-01-12T16:07:33.529Z,66.14
2019-01-12T16:10:00.641Z,66.20
2019-01-12T16:12:27.946Z,66.10
2019-01-12T16:14:55.062Z,66.00
2019-01-12T16:17:22.201Z,66.10
2019-01-12T16:19:49.460Z,66.22
2019-01-12T16:22:16.662Z,66.37
2019-01-12T16:24:43.768Z,66.33
2019-01-12T16:27:11.002Z,66.17
2019-01-12T16:29:38.155Z,66.14
2019-01-12T16:32:05.268Z,66.28
2019-01-12T16:34:32.456Z,66.45
2019-01-12T16:36:59.559Z,66.50
2019-01-12T16:39:26.687Z,66.51
2019-01-12T16:41:53.884Z,66.41
2019-01-12T16:44:20.958Z,66.44
2019-01-12T16:46:48.058Z,66.51
2019-01-12T16:49:15.260Z,66.64
2019-01-12T16:51:42.437Z,66.83
2019-01-12T16:54:09.589Z,66.76
2019-01-12T16:56:36.760Z,66.67
2019-01-12T16:59:03.878Z,67.53
2019-01-12T17:01:31.062Z,67.41
2019-01-12T17:03:58.157Z,67.52
2019-01-12T17:06:25.413Z,67.45
2019-01-12T17:08:52.509Z,67.33
2019-01-12T17:11:20.707Z,67.08
2019-01-12T17:13:47.804Z,66.98
2019-01-12T17:16:14.910Z,66.97
2019-01-12T17:18:42.016Z,67.12
2019-01-12T17:21:09.126Z,67.25
2019-01-12T17:23:36.220Z,67.22
2019-01-12T17:26:03.337Z,67.11
2019-01-12T17:28:37.149Z,67.07
2019-01-12T17:31:00.668Z,67.12
2019-01-12T17:33:27.821Z,67.18
2019-01-12T17:35:54.893Z,67.27
2019-01-12T17:38:21.989Z,67.32
2019-01-12T17:40:49.081Z,67.25
2019-01-12T17:43:16.172Z,67.18
2019-01-12T17:45:43.275Z,67.14
2019-01-12T17:48:10.368Z,67.25
2019-01-12T17:50:37.511Z,67.40
2019-01-12T17:53:04.617Z,67.39
2019-01-12T17:55:31.727Z,67.29
2019-01-12T17:57:58.827Z,67.11
2019-01-12T18:00:47.970Z,67.09
2019-01-12T18:03:15.176Z,67.18
2019-01-12T18:05:42.282Z,67.32
2019-01-12T18:08:09.410Z,67.31
2019-01-12T18:10:36.717Z,67.26
2019-01-12T18:13:04.015Z,67.17
2019-01-12T18:15:31.365Z,67.12
2019-01-12T18:17:59.592Z,67.07
2019-01-12T18:20:26.687Z,66.98
2019-01-12T18:22:53.781Z,67.06
2019-01-12T18:25:20.877Z,67.07
2019-01-12T18:27:48.017Z,67.08
2019-01-12T18:30:17.341Z,67.03
2019-01-12T18:32:44.578Z,67.01
2019-01-12T18:35:11.813Z,67.10
2019-01-12T18:37:38.939Z,67.12
2019-01-12T18:40:08.777Z,67.07
2019-01-12T18:42:35.983Z,67.04
2019-01-12T18:45:03.152Z,66.98
2019-01-12T18:47:30.235Z,67.00
2019-01-12T18:49:57.424Z,67.16
2019-01-12T18:52:24.631Z,67.27
2019-01-12T18:54:51.722Z,67.35
2019-01-12T18:57:18.900Z,67.35
2019-01-12T18:59:46.010Z,67.44
2019-01-12T19:02:13.118Z,67.56
2019-01-12T19:04:40.212Z,67.70
2019-01-12T19:07:07.350Z,67.67
2019-01-12T19:09:34.443Z,67.66
2019-01-12T19:12:01.553Z,67.69
2019-01-12T19:14:28.679Z,67.71
2019-01-12T19:16:55.774Z,67.73
2019-01-12T19:19:22.880Z,67.69
2019-01-12T19:21:49.970Z,67.67
2019-01-12T19:24:17.123Z,67.58
2019-01-12T19:26:44.360Z,67.54
2019-01-12T19:29:11.520Z,67.51
2019-01-12T19:31:38.615Z,67.36
2019-01-12T19:34:05.765Z,67.37
2019-01-12T19:36:33.027Z,67.37
2019-01-12T19:39:02.176Z,67.37
2019-01-12T19:41:29.279Z,67.37
2019-01-12T19:43:56.911Z,67.27
2019-01-12T19:46:24.061Z,67.33
2019-01-12T19:48:51.429Z,67.38
2019-01-12T19:51:18.534Z,67.32
2019-01-12T19:53:45.660Z,67.38
2019-01-12T19:56:12.776Z,67.44
2019-01-12T19:58:39.872Z,67.43
2019-01-12T20:01:06.981Z,67.44
2019-01-12T20:03:34.122Z,67.35
2019-01-12T20:06:01.240Z,67.36
2019-01-12T20:08:28.364Z,67.38
2019-01-12T20:10:55.465Z,67.46
2019-01-12T20:13:22.563Z,67.49
2019-01-12T20:15:49.677Z,67.40
2019-01-12T20:18:16.792Z,67.42
2019-01-12T20:20:43.896Z,67.40
2019-01-12T20:23:10.999Z,67.44
2019-01-12T20:25:38.089Z,67.41
2019-01-12T20:28:16.606Z,67.42
2019-01-12T20:31:40.811Z,67.50
2019-01-12T20:34:31.298Z,67.52
2019-01-12T20:37:51.238Z,67.52
2019-01-12T20:40:43.531Z,67.52
2019-01-12T20:43:58.001Z,67.49
2019-01-12T20:47:16.071Z,67.49
2019-01-12T20:50:09.278Z,67.49
2019-01-12T20:53:11.838Z,67.48
2019-01-12T20:56:17.038Z,67.54
2019-01-12T20:59:28.630Z,67.49
2019-01-12T21:02:38.034Z,67.51
2019-01-12T21:05:45.854Z,67.62
2019-01-12T21:08:57.026Z,67.76
2019-01-12T21:11:55.525Z,67.98
2019-01-12T21:14:48.405Z,68.20
2019-01-12T21:17:17.773Z,68.32
2019-01-12T21:19:48.474Z,68.32
2019-01-12T21:22:14.041Z,68.19
2019-01-12T21:24:41.193Z,68.25
2019-01-12T21:27:08.290Z,68.43
2019-01-12T21:29:35.490Z,68.58
2019-01-12T21:32:02.789Z,68.63
2019-01-12T21:34:29.882Z,68.55
2019-01-12T21:36:57.197Z,68.60
2019-01-12T21:39:24.288Z,68.80
2019-01-12T21:41:51.419Z,68.96
2019-01-12T21:44:18.506Z,69.17
2019-01-12T21:46:45.622Z,69.11
2019-01-12T21:49:12.740Z,68.89
2019-01-12T21:51:39.835Z,68.72
2019-01-12T21:54:06.947Z,68.85
2019-01-12T21:56:34.090Z,69.11
2019-01-12T21:59:01.196Z,69.25
2019-01-12T22:01:28.296Z,69.29
2019-01-12T22:03:55.416Z,69.23
2019-01-12T22:06:22.504Z,69.29
2019-01-12T22:08:49.596Z,69.52
2019-01-12T22:11:16.737Z,69.62
2019-01-12T22:13:43.842Z,69.43
2019-01-12T22:16:10.991Z,69.18
2019-01-12T22:18:38.157Z,69.12
2019-01-12T22:21:05.294Z,69.20
2019-01-12T22:23:32.619Z,69.41
2019-01-12T22:25:59.777Z,69.65
2019-01-12T22:28:26.891Z,69.72
2019-01-12T22:30:54.070Z,69.59
2019-01-12T22:33:22.327Z,69.50
2019-01-12T22:35:49.536Z,69.53
2019-01-12T22:38:16.734Z,69.64
2019-01-12T22:40:43.938Z,69.53
2019-01-12T22:43:11.032Z,69.36
2019-01-12T22:45:38.226Z,69.19
2019-01-12T22:48:05.360Z,69.14
2019-01-12T22:50:32.467Z,69.13
2019-01-12T22:52:59.608Z,69.40
2019-01-12T22:55:26.707Z,69.63
2019-01-12T22:57:53.797Z,69.70
2019-01-12T23:00:29.800Z,69.74
2019-01-12T23:02:56.924Z,69.63
2019-01-12T23:05:24.005Z,69.51
2019-01-12T23:07:51.105Z,69.63
2019-01-12T23:10:18.192Z,69.82
2019-01-12T23:12:45.286Z,69.89
2019-01-12T23:15:12.383Z,69.88
2019-01-12T23:17:39.484Z,69.66
2019-01-12T23:20:06.617Z,69.51
2019-01-12T23:22:33.707Z,69.61
2019-01-12T23:25:00.807Z,69.95
2019-01-12T23:27:27.911Z,70.01
2019-01-12T23:29:55.002Z,70.05
2019-01-12T23:32:22.099Z,69.98
2019-01-12T23:34:49.184Z,69.86
2019-01-12T23:37:16.291Z,69.78
2019-01-12T23:39:43.398Z,69.72
2019-01-12T23:42:10.487Z,69.66
2019-01-12T23:44:37.618Z,69.60
2019-01-12T23:47:04.706Z,69.57
2019-01-12T23:49:31.804Z,69.70
2019-01-12T23:51:58.899Z,69.91
2019-01-12T23:54:25.999Z,69.91
2019-01-12T23:56:53.119Z,69.86
2019-01-12T23:59:20.225Z,69.77
